sensor_id;sensor_type;location;lat;lon;timestamp;P1;durP1;ratioP1;P2;durP2;ratioP2
14282;SDS011;7225;59.282;18.344;2023-04-07T00:02:03;1.80;;;1.50;;
14282;SDS011;7225;59.282;18.344;2023-04-07T00:04:30;1.40;;;1.30;;
14282;SDS011;7225;59.282;18.344;2023-04-07T00:06:57;2.10;;;1.80;;
14282;SDS011;7225;59.282;18.344;2023-04-07T00:09:24;2.50;;;1.60;;
14282;SDS011;7225;59.282;18.344;2023-04-07T00:11:51;2.20;;;1.70;;
14282;SDS011;7225;59.282;18.344;2023-04-07T00:14:18;2.00;;;1.60;;
14282;SDS011;7225;59.282;18.344;2023-04-07T00:16:45;1.93;;;1.60;;
14282;SDS011;7225;59.282;18.344;2023-04-07T00:19:12;2.70;;;2.43;;
14282;SDS011;7225;59.282;18.344;2023-04-07T00:21:39;1.87;;;1.67;;
14282;SDS011;7225;59.282;18.344;2023-04-07T00:24:06;3.33;;;1.70;;
14282;SDS011;7225;59.282;18.344;2023-04-07T00:26:33;2.37;;;1.83;;
14282;SDS011;7225;59.282;18.344;2023-04-07T00:29:00;2.57;;;1.93;;
14282;SDS011;7225;59.282;18.344;2023-04-07T00:31:27;3.90;;;2.40;;
14282;SDS011;7225;59.282;18.344;2023-04-07T00:33:55;3.20;;;2.10;;
14282;SDS011;7225;59.282;18.344;2023-04-07T00:36:23;3.30;;;2.20;;
14282;SDS011;7225;59.282;18.344;2023-04-07T00:38:50;2.60;;;2.30;;
14282;SDS011;7225;59.282;18.344;2023-04-07T00:41:17;4.67;;;3.07;;
14282;SDS011;7225;59.282;18.344;2023-04-07T00:43:44;3.37;;;2.30;;
14282;SDS011;7225;59.282;18.344;2023-04-07T00:46:11;4.33;;;2.83;;
14282;SDS011;7225;59.282;18.344;2023-04-07T00:48:38;4.07;;;3.03;;
14282;SDS011;7225;59.282;18.344;2023-04-07T00:51:05;4.47;;;3.37;;
14282;SDS011;7225;59.282;18.344;2023-04-07T00:53:32;3.50;;;3.10;;
14282;SDS011;7225;59.282;18.344;2023-04-07T00:55:59;3.70;;;2.53;;
14282;SDS011;7225;59.282;18.344;2023-04-07T00:58:26;5.53;;;3.30;;
14282;SDS011;7225;59.282;18.344;2023-04-07T01:06:22;4.63;;;3.47;;
14282;SDS011;7225;59.282;18.344;2023-04-07T01:08:53;6.90;;;3.43;;
14282;SDS011;7225;59.282;18.344;2023-04-07T01:11:30;4.70;;;3.20;;
14282;SDS011;7225;59.282;18.344;2023-04-07T01:14:18;4.63;;;3.23;;
14282;SDS011;7225;59.282;18.344;2023-04-07T01:16:47;5.33;;;3.70;;
14282;SDS011;7225;59.282;18.344;2023-04-07T01:19:33;5.23;;;3.33;;
14282;SDS011;7225;59.282;18.344;2023-04-07T01:22:00;8.50;;;3.30;;
14282;SDS011;7225;59.282;18.344;2023-04-07T01:27:22;4.57;;;2.90;;
14282;SDS011;7225;59.282;18.344;2023-04-07T01:30:10;5.13;;;3.33;;
14282;SDS011;7225;59.282;18.344;2023-04-07T01:32:38;4.90;;;3.00;;
14282;SDS011;7225;59.282;18.344;2023-04-07T01:35:09;5.07;;;3.20;;
14282;SDS011;7225;59.282;18.344;2023-04-07T01:37:38;4.17;;;3.10;;
14282;SDS011;7225;59.282;18.344;2023-04-07T01:40:06;4.23;;;3.17;;
14282;SDS011;7225;59.282;18.344;2023-04-07T01:42:34;3.83;;;2.73;;
14282;SDS011;7225;59.282;18.344;2023-04-07T01:45:03;4.43;;;2.97;;
14282;SDS011;7225;59.282;18.344;2023-04-07T01:47:33;4.93;;;2.90;;
14282;SDS011;7225;59.282;18.344;2023-04-07T01:50:03;4.40;;;3.03;;
14282;SDS011;7225;59.282;18.344;2023-04-07T01:52:32;4.60;;;3.10;;
14282;SDS011;7225;59.282;18.344;2023-04-07T01:55:00;6.40;;;3.27;;
14282;SDS011;7225;59.282;18.344;2023-04-07T01:57:27;6.17;;;2.70;;
14282;SDS011;7225;59.282;18.344;2023-04-07T01:59:54;4.10;;;2.63;;
14282;SDS011;7225;59.282;18.344;2023-04-07T02:02:21;4.00;;;3.33;;
14282;SDS011;7225;59.282;18.344;2023-04-07T02:04:53;6.73;;;2.90;;
14282;SDS011;7225;59.282;18.344;2023-04-07T02:07:26;5.17;;;3.07;;
14282;SDS011;7225;59.282;18.344;2023-04-07T02:09:55;4.73;;;2.70;;
14282;SDS011;7225;59.282;18.344;2023-04-07T02:12:25;4.53;;;3.17;;
14282;SDS011;7225;59.282;18.344;2023-04-07T02:14:54;4.33;;;3.07;;
14282;SDS011;7225;59.282;18.344;2023-04-07T02:17:22;3.67;;;2.70;;
14282;SDS011;7225;59.282;18.344;2023-04-07T02:19:51;3.70;;;2.73;;
14282;SDS011;7225;59.282;18.344;2023-04-07T02:22:19;3.37;;;2.80;;
14282;SDS011;7225;59.282;18.344;2023-04-07T02:24:46;3.27;;;2.70;;
14282;SDS011;7225;59.282;18.344;2023-04-07T02:27:13;3.87;;;3.13;;
14282;SDS011;7225;59.282;18.344;2023-04-07T02:29:40;6.47;;;2.50;;
14282;SDS011;7225;59.282;18.344;2023-04-07T02:32:07;3.87;;;2.90;;
14282;SDS011;7225;59.282;18.344;2023-04-07T02:34:34;4.87;;;3.30;;
14282;SDS011;7225;59.282;18.344;2023-04-07T02:37:01;3.90;;;2.87;;
14282;SDS011;7225;59.282;18.344;2023-04-07T02:39:28;3.83;;;2.97;;
14282;SDS011;7225;59.282;18.344;2023-04-07T02:41:56;4.83;;;2.73;;
14282;SDS011;7225;59.282;18.344;2023-04-07T02:44:23;3.00;;;2.40;;
14282;SDS011;7225;59.282;18.344;2023-04-07T02:46:50;4.60;;;2.40;;
14282;SDS011;7225;59.282;18.344;2023-04-07T02:49:17;3.60;;;2.53;;
14282;SDS011;7225;59.282;18.344;2023-04-07T02:51:44;2.90;;;2.43;;
14282;SDS011;7225;59.282;18.344;2023-04-07T02:54:12;3.97;;;2.40;;
14282;SDS011;7225;59.282;18.344;2023-04-07T02:56:39;7.13;;;2.67;;
14282;SDS011;7225;59.282;18.344;2023-04-07T02:59:06;3.03;;;2.40;;
14282;SDS011;7225;59.282;18.344;2023-04-07T03:01:33;6.77;;;2.73;;
14282;SDS011;7225;59.282;18.344;2023-04-07T03:04:01;4.23;;;2.50;;
14282;SDS011;7225;59.282;18.344;2023-04-07T03:06:28;2.53;;;2.13;;
14282;SDS011;7225;59.282;18.344;2023-04-07T03:08:56;2.40;;;2.20;;
14282;SDS011;7225;59.282;18.344;2023-04-07T03:11:23;2.83;;;2.43;;
14282;SDS011;7225;59.282;18.344;2023-04-07T03:13:51;3.73;;;2.27;;
14282;SDS011;7225;59.282;18.344;2023-04-07T03:16:18;3.43;;;2.80;;
14282;SDS011;7225;59.282;18.344;2023-04-07T03:18:45;2.10;;;1.90;;
14282;SDS011;7225;59.282;18.344;2023-04-07T03:21:12;2.53;;;2.33;;
14282;SDS011;7225;59.282;18.344;2023-04-07T03:23:39;3.97;;;3.20;;
14282;SDS011;7225;59.282;18.344;2023-04-07T03:26:07;3.10;;;2.40;;
14282;SDS011;7225;59.282;18.344;2023-04-07T03:28:34;4.40;;;2.17;;
14282;SDS011;7225;59.282;18.344;2023-04-07T03:31:01;4.33;;;2.27;;
14282;SDS011;7225;59.282;18.344;2023-04-07T03:33:28;3.83;;;2.60;;
14282;SDS011;7225;59.282;18.344;2023-04-07T03:35:55;2.70;;;2.17;;
14282;SDS011;7225;59.282;18.344;2023-04-07T03:38:22;5.27;;;2.40;;
14282;SDS011;7225;59.282;18.344;2023-04-07T03:40:49;2.90;;;2.57;;
14282;SDS011;7225;59.282;18.344;2023-04-07T03:43:16;4.10;;;2.50;;
14282;SDS011;7225;59.282;18.344;2023-04-07T03:45:43;6.67;;;2.47;;
14282;SDS011;7225;59.282;18.344;2023-04-07T03:48:10;3.10;;;2.10;;
14282;SDS011;7225;59.282;18.344;2023-04-07T03:50:38;2.50;;;2.07;;
14282;SDS011;7225;59.282;18.344;2023-04-07T03:53:06;11.23;;;6.60;;
14282;SDS011;7225;59.282;18.344;2023-04-07T03:55:33;2.77;;;1.90;;
14282;SDS011;7225;59.282;18.344;2023-04-07T03:58:01;3.47;;;2.70;;
14282;SDS011;7225;59.282;18.344;2023-04-07T04:00:28;13.37;;;2.47;;
14282;SDS011;7225;59.282;18.344;2023-04-07T04:02:57;2.57;;;1.80;;
14282;SDS011;7225;59.282;18.344;2023-04-07T04:05:24;1.87;;;1.70;;
14282;SDS011;7225;59.282;18.344;2023-04-07T04:07:51;2.40;;;2.00;;
14282;SDS011;7225;59.282;18.344;2023-04-07T04:10:18;3.63;;;2.23;;
14282;SDS011;7225;59.282;18.344;2023-04-07T04:12:46;2.80;;;2.00;;
14282;SDS011;7225;59.282;18.344;2023-04-07T04:15:14;3.70;;;2.07;;
14282;SDS011;7225;59.282;18.344;2023-04-07T04:17:41;7.00;;;2.43;;
14282;SDS011;7225;59.282;18.344;2023-04-07T04:20:08;2.37;;;1.80;;
14282;SDS011;7225;59.282;18.344;2023-04-07T04:22:36;3.93;;;2.00;;
14282;SDS011;7225;59.282;18.344;2023-04-07T04:25:03;4.87;;;1.70;;
14282;SDS011;7225;59.282;18.344;2023-04-07T04:27:30;8.93;;;2.17;;
14282;SDS011;7225;59.282;18.344;2023-04-07T04:29:57;7.67;;;2.20;;
14282;SDS011;7225;59.282;18.344;2023-04-07T04:32:24;2.73;;;1.80;;
14282;SDS011;7225;59.282;18.344;2023-04-07T04:34:51;2.50;;;1.67;;
14282;SDS011;7225;59.282;18.344;2023-04-07T04:37:18;4.90;;;2.73;;
14282;SDS011;7225;59.282;18.344;2023-04-07T04:39:45;2.77;;;2.20;;
14282;SDS011;7225;59.282;18.344;2023-04-07T04:42:12;4.73;;;2.80;;
14282;SDS011;7225;59.282;18.344;2023-04-07T04:44:39;5.03;;;2.40;;
14282;SDS011;7225;59.282;18.344;2023-04-07T04:47:06;6.73;;;2.30;;
14282;SDS011;7225;59.282;18.344;2023-04-07T04:49:33;3.70;;;2.10;;
14282;SDS011;7225;59.282;18.344;2023-04-07T04:52:00;5.37;;;2.57;;
14282;SDS011;7225;59.282;18.344;2023-04-07T04:54:27;5.70;;;2.60;;
14282;SDS011;7225;59.282;18.344;2023-04-07T04:56:54;3.00;;;2.53;;
14282;SDS011;7225;59.282;18.344;2023-04-07T04:59:22;4.67;;;2.50;;
14282;SDS011;7225;59.282;18.344;2023-04-07T05:01:49;3.10;;;2.47;;
14282;SDS011;7225;59.282;18.344;2023-04-07T05:04:17;4.03;;;2.73;;
14282;SDS011;7225;59.282;18.344;2023-04-07T05:06:45;2.90;;;1.97;;
14282;SDS011;7225;59.282;18.344;2023-04-07T05:09:12;3.20;;;2.57;;
14282;SDS011;7225;59.282;18.344;2023-04-07T05:11:39;2.60;;;2.37;;
14282;SDS011;7225;59.282;18.344;2023-04-07T05:14:07;3.10;;;2.47;;
14282;SDS011;7225;59.282;18.344;2023-04-07T05:16:34;4.17;;;2.27;;
14282;SDS011;7225;59.282;18.344;2023-04-07T05:19:02;4.80;;;2.40;;
14282;SDS011;7225;59.282;18.344;2023-04-07T05:21:29;3.33;;;2.40;;
14282;SDS011;7225;59.282;18.344;2023-04-07T05:23:55;6.40;;;2.70;;
14282;SDS011;7225;59.282;18.344;2023-04-07T05:26:22;2.83;;;2.30;;
14282;SDS011;7225;59.282;18.344;2023-04-07T05:28:49;2.30;;;1.90;;
14282;SDS011;7225;59.282;18.344;2023-04-07T05:31:16;11.77;;;2.60;;
14282;SDS011;7225;59.282;18.344;2023-04-07T05:33:43;2.97;;;2.30;;
14282;SDS011;7225;59.282;18.344;2023-04-07T05:36:10;3.53;;;2.20;;
14282;SDS011;7225;59.282;18.344;2023-04-07T05:38:37;2.83;;;2.30;;
14282;SDS011;7225;59.282;18.344;2023-04-07T05:41:04;4.37;;;2.47;;
14282;SDS011;7225;59.282;18.344;2023-04-07T05:43:31;3.13;;;2.13;;
14282;SDS011;7225;59.282;18.344;2023-04-07T05:45:58;2.90;;;2.40;;
14282;SDS011;7225;59.282;18.344;2023-04-07T05:48:25;3.37;;;2.13;;
14282;SDS011;7225;59.282;18.344;2023-04-07T05:50:52;2.70;;;2.37;;
14282;SDS011;7225;59.282;18.344;2023-04-07T05:53:19;2.43;;;1.90;;
14282;SDS011;7225;59.282;18.344;2023-04-07T05:55:46;2.57;;;2.00;;
14282;SDS011;7225;59.282;18.344;2023-04-07T05:58:13;2.00;;;1.80;;
14282;SDS011;7225;59.282;18.344;2023-04-07T06:00:40;3.20;;;1.90;;
14282;SDS011;7225;59.282;18.344;2023-04-07T06:03:07;3.07;;;2.13;;
14282;SDS011;7225;59.282;18.344;2023-04-07T06:05:34;2.40;;;1.87;;
14282;SDS011;7225;59.282;18.344;2023-04-07T06:08:01;4.70;;;1.80;;
14282;SDS011;7225;59.282;18.344;2023-04-07T06:10:28;2.73;;;1.87;;
14282;SDS011;7225;59.282;18.344;2023-04-07T06:12:55;2.70;;;2.00;;
14282;SDS011;7225;59.282;18.344;2023-04-07T06:15:22;2.77;;;2.20;;
14282;SDS011;7225;59.282;18.344;2023-04-07T06:17:49;2.83;;;2.20;;
14282;SDS011;7225;59.282;18.344;2023-04-07T06:20:16;3.37;;;2.33;;
14282;SDS011;7225;59.282;18.344;2023-04-07T06:22:46;3.10;;;2.47;;
14282;SDS011;7225;59.282;18.344;2023-04-07T06:25:13;5.30;;;2.10;;
14282;SDS011;7225;59.282;18.344;2023-04-07T06:27:40;5.67;;;2.40;;
14282;SDS011;7225;59.282;18.344;2023-04-07T06:30:07;2.20;;;2.00;;
14282;SDS011;7225;59.282;18.344;2023-04-07T06:32:35;2.90;;;2.10;;
14282;SDS011;7225;59.282;18.344;2023-04-07T06:35:02;2.53;;;2.13;;
14282;SDS011;7225;59.282;18.344;2023-04-07T06:37:29;2.97;;;2.10;;
14282;SDS011;7225;59.282;18.344;2023-04-07T06:39:56;3.17;;;2.43;;
14282;SDS011;7225;59.282;18.344;2023-04-07T06:42:23;2.87;;;1.90;;
14282;SDS011;7225;59.282;18.344;2023-04-07T06:44:50;2.67;;;2.17;;
14282;SDS011;7225;59.282;18.344;2023-04-07T06:47:17;3.37;;;1.93;;
14282;SDS011;7225;59.282;18.344;2023-04-07T06:49:44;2.67;;;2.17;;
14282;SDS011;7225;59.282;18.344;2023-04-07T06:52:11;2.53;;;1.70;;
14282;SDS011;7225;59.282;18.344;2023-04-07T06:54:38;2.57;;;1.93;;
14282;SDS011;7225;59.282;18.344;2023-04-07T06:57:05;4.07;;;2.53;;
14282;SDS011;7225;59.282;18.344;2023-04-07T06:59:37;3.13;;;2.07;;
14282;SDS011;7225;59.282;18.344;2023-04-07T07:02:04;2.73;;;2.10;;
14282;SDS011;7225;59.282;18.344;2023-04-07T07:04:33;4.40;;;1.83;;
14282;SDS011;7225;59.282;18.344;2023-04-07T07:07:00;4.50;;;2.20;;
14282;SDS011;7225;59.282;18.344;2023-04-07T07:09:28;3.90;;;2.43;;
14282;SDS011;7225;59.282;18.344;2023-04-07T07:11:55;2.83;;;2.17;;
14282;SDS011;7225;59.282;18.344;2023-04-07T07:14:22;3.20;;;2.70;;
14282;SDS011;7225;59.282;18.344;2023-04-07T07:16:49;4.40;;;2.20;;
14282;SDS011;7225;59.282;18.344;2023-04-07T07:19:16;3.53;;;2.40;;
14282;SDS011;7225;59.282;18.344;2023-04-07T07:21:43;4.13;;;2.30;;
14282;SDS011;7225;59.282;18.344;2023-04-07T07:24:10;3.27;;;1.87;;
14282;SDS011;7225;59.282;18.344;2023-04-07T07:26:37;4.00;;;2.47;;
14282;SDS011;7225;59.282;18.344;2023-04-07T07:29:04;3.33;;;2.60;;
14282;SDS011;7225;59.282;18.344;2023-04-07T07:31:31;4.77;;;2.70;;
14282;SDS011;7225;59.282;18.344;2023-04-07T07:33:58;4.63;;;2.60;;
14282;SDS011;7225;59.282;18.344;2023-04-07T07:36:26;3.57;;;2.53;;
14282;SDS011;7225;59.282;18.344;2023-04-07T07:38:53;2.97;;;2.30;;
14282;SDS011;7225;59.282;18.344;2023-04-07T07:41:20;4.37;;;2.67;;
14282;SDS011;7225;59.282;18.344;2023-04-07T07:43:47;3.97;;;2.70;;
14282;SDS011;7225;59.282;18.344;2023-04-07T07:46:14;4.70;;;2.90;;
14282;SDS011;7225;59.282;18.344;2023-04-07T07:48:41;3.50;;;2.70;;
14282;SDS011;7225;59.282;18.344;2023-04-07T07:51:08;4.20;;;2.50;;
14282;SDS011;7225;59.282;18.344;2023-04-07T07:53:35;4.63;;;2.63;;
14282;SDS011;7225;59.282;18.344;2023-04-07T07:56:02;2.70;;;2.20;;
14282;SDS011;7225;59.282;18.344;2023-04-07T07:58:29;3.70;;;2.03;;
14282;SDS011;7225;59.282;18.344;2023-04-07T08:00:56;3.30;;;2.17;;
14282;SDS011;7225;59.282;18.344;2023-04-07T08:03:23;2.53;;;1.87;;
14282;SDS011;7225;59.282;18.344;2023-04-07T08:05:50;2.37;;;1.80;;
14282;SDS011;7225;59.282;18.344;2023-04-07T08:08:17;3.37;;;1.97;;
14282;SDS011;7225;59.282;18.344;2023-04-07T08:10:44;3.90;;;1.90;;
14282;SDS011;7225;59.282;18.344;2023-04-07T08:13:11;3.03;;;2.13;;
14282;SDS011;7225;59.282;18.344;2023-04-07T08:15:38;2.37;;;1.83;;
14282;SDS011;7225;59.282;18.344;2023-04-07T08:18:05;2.93;;;2.07;;
14282;SDS011;7225;59.282;18.344;2023-04-07T08:20:33;2.77;;;1.97;;
14282;SDS011;7225;59.282;18.344;2023-04-07T08:23:00;2.27;;;1.70;;
14282;SDS011;7225;59.282;18.344;2023-04-07T08:25:27;2.43;;;1.70;;
14282;SDS011;7225;59.282;18.344;2023-04-07T08:27:54;2.20;;;1.63;;
14282;SDS011;7225;59.282;18.344;2023-04-07T08:30:21;2.23;;;1.50;;
14282;SDS011;7225;59.282;18.344;2023-04-07T08:32:48;2.13;;;1.60;;
14282;SDS011;7225;59.282;18.344;2023-04-07T08:35:15;2.93;;;2.23;;
14282;SDS011;7225;59.282;18.344;2023-04-07T08:37:42;2.40;;;1.73;;
14282;SDS011;7225;59.282;18.344;2023-04-07T08:40:10;2.90;;;2.07;;
14282;SDS011;7225;59.282;18.344;2023-04-07T08:42:42;2.47;;;1.77;;
14282;SDS011;7225;59.282;18.344;2023-04-07T08:45:12;2.03;;;1.77;;
14282;SDS011;7225;59.282;18.344;2023-04-07T08:47:42;2.77;;;1.97;;
14282;SDS011;7225;59.282;18.344;2023-04-07T08:50:10;2.43;;;1.80;;
14282;SDS011;7225;59.282;18.344;2023-04-07T08:55:10;2.47;;;1.60;;
14282;SDS011;7225;59.282;18.344;2023-04-07T08:57:37;2.83;;;1.70;;
14282;SDS011;7225;59.282;18.344;2023-04-07T09:00:06;2.47;;;1.50;;
14282;SDS011;7225;59.282;18.344;2023-04-07T09:02:34;1.73;;;1.60;;
14282;SDS011;7225;59.282;18.344;2023-04-07T09:05:03;1.77;;;1.63;;
14282;SDS011;7225;59.282;18.344;2023-04-07T09:07:32;1.93;;;1.70;;
14282;SDS011;7225;59.282;18.344;2023-04-07T09:10:00;1.77;;;1.60;;
14282;SDS011;7225;59.282;18.344;2023-04-07T09:12:28;2.23;;;1.77;;
14282;SDS011;7225;59.282;18.344;2023-04-07T09:14:56;1.57;;;1.33;;
14282;SDS011;7225;59.282;18.344;2023-04-07T09:17:24;1.60;;;1.50;;
14282;SDS011;7225;59.282;18.344;2023-04-07T09:19:56;2.77;;;1.90;;
14282;SDS011;7225;59.282;18.344;2023-04-07T09:22:37;2.90;;;2.07;;
14282;SDS011;7225;59.282;18.344;2023-04-07T09:25:12;2.43;;;1.90;;
14282;SDS011;7225;59.282;18.344;2023-04-07T09:30:27;2.13;;;1.80;;
14282;SDS011;7225;59.282;18.344;2023-04-07T09:32:56;2.67;;;1.90;;
14282;SDS011;7225;59.282;18.344;2023-04-07T09:35:23;3.53;;;1.60;;
14282;SDS011;7225;59.282;18.344;2023-04-07T09:40:28;1.73;;;1.37;;
14282;SDS011;7225;59.282;18.344;2023-04-07T09:42:56;1.70;;;1.30;;
14282;SDS011;7225;59.282;18.344;2023-04-07T09:45:26;1.77;;;1.33;;
14282;SDS011;7225;59.282;18.344;2023-04-07T09:47:57;1.60;;;1.50;;
14282;SDS011;7225;59.282;18.344;2023-04-07T09:50:34;2.33;;;1.63;;
14282;SDS011;7225;59.282;18.344;2023-04-07T09:53:02;3.00;;;1.97;;
14282;SDS011;7225;59.282;18.344;2023-04-07T09:55:30;1.43;;;1.20;;
14282;SDS011;7225;59.282;18.344;2023-04-07T09:57:59;2.23;;;1.30;;
14282;SDS011;7225;59.282;18.344;2023-04-07T10:00:26;1.70;;;1.33;;
14282;SDS011;7225;59.282;18.344;2023-04-07T10:02:53;2.10;;;1.50;;
14282;SDS011;7225;59.282;18.344;2023-04-07T10:05:22;2.33;;;1.30;;
14282;SDS011;7225;59.282;18.344;2023-04-07T10:07:50;2.27;;;1.33;;
14282;SDS011;7225;59.282;18.344;2023-04-07T10:10:17;2.37;;;1.50;;
14282;SDS011;7225;59.282;18.344;2023-04-07T10:12:44;1.53;;;1.10;;
14282;SDS011;7225;59.282;18.344;2023-04-07T10:15:13;1.50;;;1.00;;
14282;SDS011;7225;59.282;18.344;2023-04-07T10:17:47;1.70;;;1.30;;
14282;SDS011;7225;59.282;18.344;2023-04-07T10:20:18;1.10;;;0.90;;
14282;SDS011;7225;59.282;18.344;2023-04-07T10:22:49;2.47;;;1.27;;
14282;SDS011;7225;59.282;18.344;2023-04-07T10:25:18;1.53;;;1.10;;
14282;SDS011;7225;59.282;18.344;2023-04-07T10:27:52;1.10;;;1.00;;
14282;SDS011;7225;59.282;18.344;2023-04-07T10:30:29;1.30;;;1.20;;
14282;SDS011;7225;59.282;18.344;2023-04-07T10:32:58;1.37;;;1.20;;
14282;SDS011;7225;59.282;18.344;2023-04-07T10:35:25;1.13;;;1.03;;
14282;SDS011;7225;59.282;18.344;2023-04-07T10:40:33;1.67;;;1.00;;
14282;SDS011;7225;59.282;18.344;2023-04-07T10:43:01;1.00;;;0.90;;
14282;SDS011;7225;59.282;18.344;2023-04-07T10:48:15;0.80;;;0.70;;
14282;SDS011;7225;59.282;18.344;2023-04-07T10:50:44;2.40;;;0.90;;
14282;SDS011;7225;59.282;18.344;2023-04-07T10:53:12;1.33;;;0.80;;
14282;SDS011;7225;59.282;18.344;2023-04-07T10:55:40;0.87;;;0.73;;
14282;SDS011;7225;59.282;18.344;2023-04-07T10:58:15;1.10;;;0.60;;
14282;SDS011;7225;59.282;18.344;2023-04-07T11:03:35;0.90;;;0.70;;
14282;SDS011;7225;59.282;18.344;2023-04-07T11:08:36;1.07;;;0.97;;
14282;SDS011;7225;59.282;18.344;2023-04-07T11:11:06;0.93;;;0.83;;
14282;SDS011;7225;59.282;18.344;2023-04-07T11:13:43;1.23;;;0.97;;
14282;SDS011;7225;59.282;18.344;2023-04-07T11:16:15;1.10;;;1.00;;
14282;SDS011;7225;59.282;18.344;2023-04-07T11:18:45;1.20;;;1.10;;
14282;SDS011;7225;59.282;18.344;2023-04-07T11:21:18;1.27;;;1.17;;
14282;SDS011;7225;59.282;18.344;2023-04-07T11:23:45;1.57;;;1.17;;
14282;SDS011;7225;59.282;18.344;2023-04-07T11:26:14;1.00;;;0.90;;
14282;SDS011;7225;59.282;18.344;2023-04-07T11:28:48;0.90;;;0.80;;
14282;SDS011;7225;59.282;18.344;2023-04-07T11:31:20;0.80;;;0.80;;
14282;SDS011;7225;59.282;18.344;2023-04-07T11:33:53;0.60;;;0.60;;
14282;SDS011;7225;59.282;18.344;2023-04-07T11:36:28;0.73;;;0.70;;
14282;SDS011;7225;59.282;18.344;2023-04-07T11:38:59;1.20;;;1.10;;
14282;SDS011;7225;59.282;18.344;2023-04-07T11:41:29;1.13;;;1.00;;
14282;SDS011;7225;59.282;18.344;2023-04-07T11:46:51;1.00;;;0.90;;
14282;SDS011;7225;59.282;18.344;2023-04-07T11:49:20;1.00;;;0.80;;
14282;SDS011;7225;59.282;18.344;2023-04-07T11:51:55;1.30;;;0.80;;
14282;SDS011;7225;59.282;18.344;2023-04-07T11:54:24;1.10;;;1.00;;
14282;SDS011;7225;59.282;18.344;2023-04-07T11:56:51;1.17;;;1.07;;
14282;SDS011;7225;59.282;18.344;2023-04-07T11:59:21;0.90;;;0.80;;
14282;SDS011;7225;59.282;18.344;2023-04-07T12:01:50;1.43;;;0.80;;
14282;SDS011;7225;59.282;18.344;2023-04-07T12:04:22;1.10;;;1.00;;
14282;SDS011;7225;59.282;18.344;2023-04-07T12:06:49;1.00;;;0.90;;
14282;SDS011;7225;59.282;18.344;2023-04-07T12:09:29;1.47;;;0.90;;
14282;SDS011;7225;59.282;18.344;2023-04-07T12:12:00;1.63;;;1.53;;
14282;SDS011;7225;59.282;18.344;2023-04-07T12:14:28;1.57;;;1.40;;
14282;SDS011;7225;59.282;18.344;2023-04-07T12:16:55;1.50;;;1.33;;
14282;SDS011;7225;59.282;18.344;2023-04-07T12:19:26;1.70;;;1.30;;
14282;SDS011;7225;59.282;18.344;2023-04-07T12:21:55;1.47;;;1.37;;
14282;SDS011;7225;59.282;18.344;2023-04-07T12:24:22;1.70;;;1.60;;
14282;SDS011;7225;59.282;18.344;2023-04-07T12:26:49;1.60;;;1.33;;
14282;SDS011;7225;59.282;18.344;2023-04-07T12:29:16;1.50;;;1.20;;
14282;SDS011;7225;59.282;18.344;2023-04-07T12:31:45;1.30;;;1.20;;
14282;SDS011;7225;59.282;18.344;2023-04-07T12:34:15;1.47;;;1.30;;
14282;SDS011;7225;59.282;18.344;2023-04-07T12:36:42;2.07;;;1.40;;
14282;SDS011;7225;59.282;18.344;2023-04-07T12:39:10;1.97;;;1.30;;
14282;SDS011;7225;59.282;18.344;2023-04-07T12:41:37;1.13;;;1.03;;
14282;SDS011;7225;59.282;18.344;2023-04-07T12:44:05;1.63;;;1.20;;
14282;SDS011;7225;59.282;18.344;2023-04-07T12:46:32;2.03;;;1.13;;
14282;SDS011;7225;59.282;18.344;2023-04-07T12:48:59;1.30;;;1.20;;
14282;SDS011;7225;59.282;18.344;2023-04-07T12:51:26;1.43;;;0.93;;
14282;SDS011;7225;59.282;18.344;2023-04-07T12:53:53;1.23;;;0.80;;
14282;SDS011;7225;59.282;18.344;2023-04-07T12:56:20;1.10;;;1.00;;
14282;SDS011;7225;59.282;18.344;2023-04-07T12:58:47;1.00;;;0.90;;
14282;SDS011;7225;59.282;18.344;2023-04-07T13:01:14;0.80;;;0.80;;
14282;SDS011;7225;59.282;18.344;2023-04-07T13:03:42;1.03;;;0.87;;
14282;SDS011;7225;59.282;18.344;2023-04-07T13:06:09;1.00;;;0.90;;
14282;SDS011;7225;59.282;18.344;2023-04-07T13:08:37;1.27;;;1.10;;
14282;SDS011;7225;59.282;18.344;2023-04-07T13:11:05;1.00;;;0.90;;
14282;SDS011;7225;59.282;18.344;2023-04-07T13:13:32;1.20;;;1.10;;
14282;SDS011;7225;59.282;18.344;2023-04-07T13:15:59;2.00;;;1.30;;
14282;SDS011;7225;59.282;18.344;2023-04-07T13:18:27;1.77;;;1.50;;
14282;SDS011;7225;59.282;18.344;2023-04-07T13:20:54;1.60;;;1.43;;
14282;SDS011;7225;59.282;18.344;2023-04-07T13:23:41;1.63;;;1.30;;
14282;SDS011;7225;59.282;18.344;2023-04-07T13:26:09;1.20;;;1.03;;
14282;SDS011;7225;59.282;18.344;2023-04-07T13:28:36;3.27;;;1.30;;
14282;SDS011;7225;59.282;18.344;2023-04-07T13:31:04;1.80;;;1.30;;
14282;SDS011;7225;59.282;18.344;2023-04-07T13:33:31;2.77;;;1.17;;
14282;SDS011;7225;59.282;18.344;2023-04-07T13:35:58;1.33;;;1.10;;
14282;SDS011;7225;59.282;18.344;2023-04-07T13:38:25;1.20;;;1.10;;
14282;SDS011;7225;59.282;18.344;2023-04-07T13:40:52;1.77;;;1.03;;
14282;SDS011;7225;59.282;18.344;2023-04-07T13:43:19;1.20;;;1.10;;
14282;SDS011;7225;59.282;18.344;2023-04-07T13:45:46;1.17;;;1.07;;
14282;SDS011;7225;59.282;18.344;2023-04-07T13:48:14;1.67;;;1.17;;
14282;SDS011;7225;59.282;18.344;2023-04-07T13:50:41;1.10;;;1.00;;
14282;SDS011;7225;59.282;18.344;2023-04-07T13:53:08;1.20;;;1.10;;
14282;SDS011;7225;59.282;18.344;2023-04-07T13:55:35;1.20;;;1.00;;
14282;SDS011;7225;59.282;18.344;2023-04-07T13:58:02;1.33;;;1.13;;
14282;SDS011;7225;59.282;18.344;2023-04-07T14:00:29;1.37;;;1.27;;
14282;SDS011;7225;59.282;18.344;2023-04-07T14:02:56;2.00;;;1.33;;
14282;SDS011;7225;59.282;18.344;2023-04-07T14:05:23;1.40;;;1.10;;
14282;SDS011;7225;59.282;18.344;2023-04-07T14:07:50;1.93;;;1.37;;
14282;SDS011;7225;59.282;18.344;2023-04-07T14:10:17;2.80;;;1.50;;
14282;SDS011;7225;59.282;18.344;2023-04-07T14:12:44;1.50;;;1.40;;
14282;SDS011;7225;59.282;18.344;2023-04-07T14:15:12;1.83;;;1.50;;
14282;SDS011;7225;59.282;18.344;2023-04-07T14:17:41;2.30;;;1.47;;
14282;SDS011;7225;59.282;18.344;2023-04-07T14:20:08;2.10;;;1.60;;
14282;SDS011;7225;59.282;18.344;2023-04-07T14:22:35;1.80;;;1.70;;
14282;SDS011;7225;59.282;18.344;2023-04-07T14:25:02;2.17;;;1.50;;
14282;SDS011;7225;59.282;18.344;2023-04-07T14:27:29;2.17;;;1.73;;
14282;SDS011;7225;59.282;18.344;2023-04-07T14:29:56;2.97;;;2.17;;
14282;SDS011;7225;59.282;18.344;2023-04-07T14:32:25;2.37;;;1.40;;
14282;SDS011;7225;59.282;18.344;2023-04-07T14:34:55;2.60;;;1.80;;
14282;SDS011;7225;59.282;18.344;2023-04-07T14:37:24;2.13;;;1.70;;
14282;SDS011;7225;59.282;18.344;2023-04-07T14:39:53;2.27;;;1.70;;
14282;SDS011;7225;59.282;18.344;2023-04-07T14:42:28;1.87;;;1.60;;
14282;SDS011;7225;59.282;18.344;2023-04-07T14:44:55;4.53;;;1.93;;
14282;SDS011;7225;59.282;18.344;2023-04-07T14:47:22;2.57;;;1.63;;
14282;SDS011;7225;59.282;18.344;2023-04-07T14:49:49;2.23;;;1.90;;
14282;SDS011;7225;59.282;18.344;2023-04-07T14:52:19;1.50;;;1.40;;
14282;SDS011;7225;59.282;18.344;2023-04-07T14:54:47;2.27;;;1.60;;
14282;SDS011;7225;59.282;18.344;2023-04-07T14:57:14;1.97;;;1.30;;
14282;SDS011;7225;59.282;18.344;2023-04-07T14:59:42;1.40;;;1.30;;
14282;SDS011;7225;59.282;18.344;2023-04-07T15:02:09;2.00;;;1.50;;
14282;SDS011;7225;59.282;18.344;2023-04-07T15:04:36;1.70;;;1.60;;
14282;SDS011;7225;59.282;18.344;2023-04-07T15:07:04;1.73;;;1.40;;
14282;SDS011;7225;59.282;18.344;2023-04-07T15:09:31;2.57;;;1.83;;
14282;SDS011;7225;59.282;18.344;2023-04-07T15:11:58;1.93;;;1.60;;
14282;SDS011;7225;59.282;18.344;2023-04-07T15:14:26;2.30;;;1.60;;
14282;SDS011;7225;59.282;18.344;2023-04-07T15:16:53;3.20;;;1.60;;
14282;SDS011;7225;59.282;18.344;2023-04-07T15:19:20;2.93;;;1.70;;
14282;SDS011;7225;59.282;18.344;2023-04-07T15:21:47;2.13;;;1.80;;
14282;SDS011;7225;59.282;18.344;2023-04-07T15:24:14;2.10;;;1.80;;